METAR Data
IDs: Format: Raw Decoded Include TAF

Data at: 1017 UTC 17 Feb 2019

METAR for:KHLX (Hillsville/Twin Cnty, VA, US)
Text:KHLX 170955Z AUTO 14004KT 10SM OVC026 00/M04 A2994 RMK AO2 T10011039
Temperature: -0.1°C ( 32°F)
Dewpoint: -3.9°C ( 25°F) [RH = 76%]
Pressure (altimeter):29.94 inches Hg (1014.0 mb)
Winds:from the SE (140 degrees) at 5 MPH (4 knots; 2.1 m/s)
Visibility:10 or more sm (16+ km)
Ceiling:2600 feet AGL
Clouds: overcast cloud deck at 2600 feet AGL
QC Flag:automated observation with no human augmentation